sensor_id;sensor_type;location;lat;lon;timestamp;temperature;humidity
29855;DHT22;16733;48.738;9.106;2022-08-30T00:02:49;19.70;66.90
29855;DHT22;16733;48.738;9.106;2022-08-30T00:05:16;19.70;66.90
29855;DHT22;16733;48.738;9.106;2022-08-30T00:07:41;19.60;67.10
29855;DHT22;16733;48.738;9.106;2022-08-30T00:13:30;19.50;67.40
29855;DHT22;16733;48.738;9.106;2022-08-30T00:15:56;19.40;67.40
29855;DHT22;16733;48.738;9.106;2022-08-30T00:21:43;19.40;67.80
29855;DHT22;16733;48.738;9.106;2022-08-30T00:24:09;19.40;67.90
29855;DHT22;16733;48.738;9.106;2022-08-30T00:26:35;19.40;68.00
29855;DHT22;16733;48.738;9.106;2022-08-30T00:29:00;19.30;68.00
29855;DHT22;16733;48.738;9.106;2022-08-30T00:31:26;19.30;68.10
29855;DHT22;16733;48.738;9.106;2022-08-30T00:33:51;19.30;68.70
29855;DHT22;16733;48.738;9.106;2022-08-30T00:36:17;19.20;68.30
29855;DHT22;16733;48.738;9.106;2022-08-30T00:38:42;19.30;68.30
29855;DHT22;16733;48.738;9.106;2022-08-30T00:41:08;19.20;68.40
29855;DHT22;16733;48.738;9.106;2022-08-30T00:46:56;19.20;68.60
29855;DHT22;16733;48.738;9.106;2022-08-30T00:49:22;19.20;68.60
29855;DHT22;16733;48.738;9.106;2022-08-30T00:55:11;19.20;68.70
29855;DHT22;16733;48.738;9.106;2022-08-30T00:57:39;19.20;68.70
29855;DHT22;16733;48.738;9.106;2022-08-30T01:00:06;19.10;68.80
29855;DHT22;16733;48.738;9.106;2022-08-30T01:02:33;19.10;68.90
29855;DHT22;16733;48.738;9.106;2022-08-30T01:05:01;19.00;69.00
29855;DHT22;16733;48.738;9.106;2022-08-30T01:07:26;19.00;69.30
29855;DHT22;16733;48.738;9.106;2022-08-30T01:09:53;19.00;69.40
29855;DHT22;16733;48.738;9.106;2022-08-30T01:12:18;18.90;69.50
29855;DHT22;16733;48.738;9.106;2022-08-30T01:14:45;18.80;69.60
29855;DHT22;16733;48.738;9.106;2022-08-30T01:17:12;18.70;69.70
29855;DHT22;16733;48.738;9.106;2022-08-30T01:19:58;18.70;69.90
29855;DHT22;16733;48.738;9.106;2022-08-30T01:29:06;18.50;70.30
29855;DHT22;16733;48.738;9.106;2022-08-30T01:34:56;18.40;70.70
29855;DHT22;16733;48.738;9.106;2022-08-30T01:40:48;18.30;70.80
29855;DHT22;16733;48.738;9.106;2022-08-30T01:43:15;18.30;70.80
29855;DHT22;16733;48.738;9.106;2022-08-30T01:45:41;18.30;70.90
29855;DHT22;16733;48.738;9.106;2022-08-30T01:48:07;18.30;71.00
29855;DHT22;16733;48.738;9.106;2022-08-30T01:50:33;18.30;71.10
29855;DHT22;16733;48.738;9.106;2022-08-30T01:52:59;18.30;71.20
29855;DHT22;16733;48.738;9.106;2022-08-30T01:55:24;18.30;71.20
29855;DHT22;16733;48.738;9.106;2022-08-30T01:57:50;18.20;71.20
29855;DHT22;16733;48.738;9.106;2022-08-30T02:00:16;18.20;71.40
29855;DHT22;16733;48.738;9.106;2022-08-30T02:02:42;18.20;71.50
29855;DHT22;16733;48.738;9.106;2022-08-30T02:05:08;18.20;71.50
29855;DHT22;16733;48.738;9.106;2022-08-30T02:07:34;18.20;71.60
29855;DHT22;16733;48.738;9.106;2022-08-30T02:09:59;18.20;71.80
29855;DHT22;16733;48.738;9.106;2022-08-30T02:12:25;18.20;71.80
29855;DHT22;16733;48.738;9.106;2022-08-30T02:14:51;18.10;71.90
29855;DHT22;16733;48.738;9.106;2022-08-30T02:20:39;18.10;72.20
29855;DHT22;16733;48.738;9.106;2022-08-30T02:23:04;18.00;72.10
29855;DHT22;16733;48.738;9.106;2022-08-30T02:25:30;17.90;72.20
29855;DHT22;16733;48.738;9.106;2022-08-30T02:27:56;17.90;72.40
29855;DHT22;16733;48.738;9.106;2022-08-30T02:30:21;17.80;72.50
29855;DHT22;16733;48.738;9.106;2022-08-30T02:32:47;17.80;72.70
29855;DHT22;16733;48.738;9.106;2022-08-30T02:35:12;17.80;72.90
29855;DHT22;16733;48.738;9.106;2022-08-30T02:37:38;17.70;72.80
29855;DHT22;16733;48.738;9.106;2022-08-30T02:43:25;17.70;73.00
29855;DHT22;16733;48.738;9.106;2022-08-30T02:45:52;17.70;72.90
29855;DHT22;16733;48.738;9.106;2022-08-30T02:48:18;17.70;73.00
29855;DHT22;16733;48.738;9.106;2022-08-30T02:50:46;17.60;73.10
29855;DHT22;16733;48.738;9.106;2022-08-30T02:53:12;17.60;73.20
29855;DHT22;16733;48.738;9.106;2022-08-30T02:55:38;17.60;73.30
29855;DHT22;16733;48.738;9.106;2022-08-30T02:58:04;17.60;73.40
29855;DHT22;16733;48.738;9.106;2022-08-30T03:00:30;17.50;73.40
29855;DHT22;16733;48.738;9.106;2022-08-30T03:02:56;17.50;73.50
29855;DHT22;16733;48.738;9.106;2022-08-30T03:05:21;17.50;73.60
29855;DHT22;16733;48.738;9.106;2022-08-30T03:07:47;17.50;73.80
29855;DHT22;16733;48.738;9.106;2022-08-30T03:10:14;17.50;73.80
29855;DHT22;16733;48.738;9.106;2022-08-30T03:12:40;17.50;73.80
29855;DHT22;16733;48.738;9.106;2022-08-30T03:15:07;17.50;73.90
29855;DHT22;16733;48.738;9.106;2022-08-30T03:20:55;17.50;74.10
29855;DHT22;16733;48.738;9.106;2022-08-30T03:23:21;17.50;74.10
29855;DHT22;16733;48.738;9.106;2022-08-30T03:29:09;17.50;74.30
29855;DHT22;16733;48.738;9.106;2022-08-30T03:31:34;17.50;74.20
29855;DHT22;16733;48.738;9.106;2022-08-30T03:34:01;17.50;74.30
29855;DHT22;16733;48.738;9.106;2022-08-30T03:36:28;17.50;74.40
29855;DHT22;16733;48.738;9.106;2022-08-30T03:38:54;17.50;74.40
29855;DHT22;16733;48.738;9.106;2022-08-30T03:41:19;17.50;74.40
29855;DHT22;16733;48.738;9.106;2022-08-30T03:43:45;17.50;74.50
29855;DHT22;16733;48.738;9.106;2022-08-30T03:46:12;17.40;74.50
29855;DHT22;16733;48.738;9.106;2022-08-30T03:48:39;17.40;74.70
29855;DHT22;16733;48.738;9.106;2022-08-30T03:51:05;17.40;74.80
29855;DHT22;16733;48.738;9.106;2022-08-30T03:53:30;17.40;74.80
29855;DHT22;16733;48.738;9.106;2022-08-30T03:55:56;17.40;74.90
29855;DHT22;16733;48.738;9.106;2022-08-30T03:58:21;17.40;75.00
29855;DHT22;16733;48.738;9.106;2022-08-30T04:00:47;17.40;75.00
29855;DHT22;16733;48.738;9.106;2022-08-30T04:03:13;17.40;75.00
29855;DHT22;16733;48.738;9.106;2022-08-30T04:09:01;17.40;75.20
29855;DHT22;16733;48.738;9.106;2022-08-30T04:11:27;17.40;75.10
29855;DHT22;16733;48.738;9.106;2022-08-30T04:13:52;17.40;75.30
29855;DHT22;16733;48.738;9.106;2022-08-30T04:16:20;17.40;75.30
29855;DHT22;16733;48.738;9.106;2022-08-30T04:32:15;17.30;75.50
29855;DHT22;16733;48.738;9.106;2022-08-30T04:34:41;17.20;75.40
29855;DHT22;16733;48.738;9.106;2022-08-30T04:40:29;17.20;75.80
29855;DHT22;16733;48.738;9.106;2022-08-30T04:46:17;17.20;76.00
29855;DHT22;16733;48.738;9.106;2022-08-30T04:48:43;17.10;75.90
29855;DHT22;16733;48.738;9.106;2022-08-30T04:51:13;17.10;76.00
29855;DHT22;16733;48.738;9.106;2022-08-30T04:57:01;17.10;76.20
29855;DHT22;16733;48.738;9.106;2022-08-30T04:59:26;17.10;76.20
29855;DHT22;16733;48.738;9.106;2022-08-30T05:01:53;17.10;76.30
29855;DHT22;16733;48.738;9.106;2022-08-30T05:04:18;17.10;76.30
29855;DHT22;16733;48.738;9.106;2022-08-30T05:06:44;17.10;76.60
29855;DHT22;16733;48.738;9.106;2022-08-30T05:16:07;17.30;76.80
29855;DHT22;16733;48.738;9.106;2022-08-30T05:28:38;17.60;76.80
29855;DHT22;16733;48.738;9.106;2022-08-30T05:33:40;17.90;76.80
29855;DHT22;16733;48.738;9.106;2022-08-30T05:36:07;17.90;76.70
29855;DHT22;16733;48.738;9.106;2022-08-30T05:38:32;18.00;76.80
29855;DHT22;16733;48.738;9.106;2022-08-30T05:44:20;18.10;76.80
29855;DHT22;16733;48.738;9.106;2022-08-30T05:46:46;18.10;76.80
29855;DHT22;16733;48.738;9.106;2022-08-30T05:52:38;18.20;76.80
29855;DHT22;16733;48.738;9.106;2022-08-30T05:55:05;18.20;76.80
29855;DHT22;16733;48.738;9.106;2022-08-30T05:57:33;18.30;77.00
29855;DHT22;16733;48.738;9.106;2022-08-30T06:00:00;18.30;77.00
29855;DHT22;16733;48.738;9.106;2022-08-30T06:02:26;18.30;77.00
29855;DHT22;16733;48.738;9.106;2022-08-30T06:04:52;18.30;77.00
29855;DHT22;16733;48.738;9.106;2022-08-30T06:07:17;18.30;77.10
29855;DHT22;16733;48.738;9.106;2022-08-30T06:09:43;18.40;77.10
29855;DHT22;16733;48.738;9.106;2022-08-30T06:22:15;18.60;77.00
29855;DHT22;16733;48.738;9.106;2022-08-30T06:28:04;18.80;76.90
29855;DHT22;16733;48.738;9.106;2022-08-30T06:30:31;19.00;76.90
29855;DHT22;16733;48.738;9.106;2022-08-30T06:36:22;19.30;76.70
29855;DHT22;16733;48.738;9.106;2022-08-30T06:38:54;19.30;76.50
29855;DHT22;16733;48.738;9.106;2022-08-30T06:44:42;19.50;76.10
29855;DHT22;16733;48.738;9.106;2022-08-30T06:47:07;19.50;76.10
29855;DHT22;16733;48.738;9.106;2022-08-30T06:52:55;19.50;76.10
29855;DHT22;16733;48.738;9.106;2022-08-30T06:55:21;19.50;76.30
29855;DHT22;16733;48.738;9.106;2022-08-30T06:57:47;19.50;76.30
29855;DHT22;16733;48.738;9.106;2022-08-30T07:03:35;19.70;76.00
29855;DHT22;16733;48.738;9.106;2022-08-30T07:06:00;19.80;75.90
29855;DHT22;16733;48.738;9.106;2022-08-30T07:11:48;20.00;75.80
29855;DHT22;16733;48.738;9.106;2022-08-30T07:14:14;20.10;75.60
29855;DHT22;16733;48.738;9.106;2022-08-30T07:26:48;20.40;74.80
29855;DHT22;16733;48.738;9.106;2022-08-30T07:35:59;20.70;74.20
29855;DHT22;16733;48.738;9.106;2022-08-30T07:38:26;20.80;74.20
29855;DHT22;16733;48.738;9.106;2022-08-30T07:40:51;20.90;74.80
29855;DHT22;16733;48.738;9.106;2022-08-30T07:43:17;20.90;73.70
29855;DHT22;16733;48.738;9.106;2022-08-30T07:45:43;21.00;73.70
29855;DHT22;16733;48.738;9.106;2022-08-30T07:48:09;21.10;73.50
29855;DHT22;16733;48.738;9.106;2022-08-30T07:50:37;21.10;73.30
29855;DHT22;16733;48.738;9.106;2022-08-30T07:53:03;21.20;73.40
29855;DHT22;16733;48.738;9.106;2022-08-30T07:58:51;21.30;72.90
29855;DHT22;16733;48.738;9.106;2022-08-30T08:01:18;21.30;73.00
29855;DHT22;16733;48.738;9.106;2022-08-30T08:03:44;21.40;72.90
29855;DHT22;16733;48.738;9.106;2022-08-30T08:06:13;21.50;72.80
29855;DHT22;16733;48.738;9.106;2022-08-30T08:08:39;21.50;72.60
29855;DHT22;16733;48.738;9.106;2022-08-30T08:13:37;21.50;72.30
29855;DHT22;16733;48.738;9.106;2022-08-30T08:16:03;21.50;72.60
29855;DHT22;16733;48.738;9.106;2022-08-30T08:18:28;21.50;72.60
29855;DHT22;16733;48.738;9.106;2022-08-30T08:20:56;21.60;72.50
29855;DHT22;16733;48.738;9.106;2022-08-30T08:23:22;21.80;72.40
29855;DHT22;16733;48.738;9.106;2022-08-30T08:25:47;21.90;72.20
29855;DHT22;16733;48.738;9.106;2022-08-30T08:28:13;22.00;72.00
29855;DHT22;16733;48.738;9.106;2022-08-30T08:30:39;22.10;71.70
29855;DHT22;16733;48.738;9.106;2022-08-30T08:33:07;22.20;71.70
29855;DHT22;16733;48.738;9.106;2022-08-30T08:35:34;22.30;71.40
29855;DHT22;16733;48.738;9.106;2022-08-30T08:38:00;22.50;71.10
29855;DHT22;16733;48.738;9.106;2022-08-30T08:40:26;22.50;71.00
29855;DHT22;16733;48.738;9.106;2022-08-30T08:43:09;22.60;70.80
29855;DHT22;16733;48.738;9.106;2022-08-30T08:51:08;22.90;69.90
29855;DHT22;16733;48.738;9.106;2022-08-30T08:54:00;23.00;69.80
29855;DHT22;16733;48.738;9.106;2022-08-30T08:56:26;23.10;69.70
29855;DHT22;16733;48.738;9.106;2022-08-30T08:58:54;23.20;69.20
29855;DHT22;16733;48.738;9.106;2022-08-30T09:01:24;23.20;68.70
29855;DHT22;16733;48.738;9.106;2022-08-30T09:07:22;23.20;68.20
29855;DHT22;16733;48.738;9.106;2022-08-30T09:09:51;23.30;68.00
29855;DHT22;16733;48.738;9.106;2022-08-30T09:12:18;23.40;67.80
29855;DHT22;16733;48.738;9.106;2022-08-30T09:14:51;23.50;67.50
29855;DHT22;16733;48.738;9.106;2022-08-30T09:17:18;23.50;66.80
29855;DHT22;16733;48.738;9.106;2022-08-30T09:25:28;23.70;66.70
29855;DHT22;16733;48.738;9.106;2022-08-30T09:28:08;23.80;66.20
29855;DHT22;16733;48.738;9.106;2022-08-30T09:30:35;23.90;66.60
29855;DHT22;16733;48.738;9.106;2022-08-30T09:33:06;23.90;65.90
29855;DHT22;16733;48.738;9.106;2022-08-30T09:35:43;24.10;65.50
29855;DHT22;16733;48.738;9.106;2022-08-30T09:38:20;24.30;65.40
29855;DHT22;16733;48.738;9.106;2022-08-30T09:52:15;24.70;63.80
29855;DHT22;16733;48.738;9.106;2022-08-30T10:00:28;24.90;63.40
29855;DHT22;16733;48.738;9.106;2022-08-30T10:06:21;25.00;62.50
29855;DHT22;16733;48.738;9.106;2022-08-30T10:22:46;25.40;60.20
29855;DHT22;16733;48.738;9.106;2022-08-30T10:25:16;25.50;59.40
29855;DHT22;16733;48.738;9.106;2022-08-30T10:27:52;25.50;59.20
29855;DHT22;16733;48.738;9.106;2022-08-30T10:30:19;25.40;59.00
29855;DHT22;16733;48.738;9.106;2022-08-30T10:36:12;25.50;58.00
29855;DHT22;16733;48.738;9.106;2022-08-30T10:38:43;25.50;58.30
29855;DHT22;16733;48.738;9.106;2022-08-30T10:42:11;25.50;58.30
29855;DHT22;16733;48.738;9.106;2022-08-30T10:44:42;25.70;58.20
29855;DHT22;16733;48.738;9.106;2022-08-30T10:50:36;26.00;57.30
29855;DHT22;16733;48.738;9.106;2022-08-30T10:56:20;26.10;56.90
29855;DHT22;16733;48.738;9.106;2022-08-30T10:58:48;26.10;57.10
29855;DHT22;16733;48.738;9.106;2022-08-30T11:06:35;26.50;56.20
29855;DHT22;16733;48.738;9.106;2022-08-30T11:14:27;27.00;55.10
29855;DHT22;16733;48.738;9.106;2022-08-30T11:16:55;27.10;55.20
29855;DHT22;16733;48.738;9.106;2022-08-30T11:19:23;27.20;54.80
29855;DHT22;16733;48.738;9.106;2022-08-30T11:21:51;27.20;54.10
29855;DHT22;16733;48.738;9.106;2022-08-30T11:24:19;27.10;54.10
29855;DHT22;16733;48.738;9.106;2022-08-30T11:35:46;27.80;53.40
29855;DHT22;16733;48.738;9.106;2022-08-30T11:46:48;27.40;52.30
29855;DHT22;16733;48.738;9.106;2022-08-30T11:58:57;27.60;52.10
29855;DHT22;16733;48.738;9.106;2022-08-30T12:16:13;27.30;51.70
29855;DHT22;16733;48.738;9.106;2022-08-30T12:31:24;27.50;51.50
29855;DHT22;16733;48.738;9.106;2022-08-30T12:40:34;27.50;51.20
29855;DHT22;16733;48.738;9.106;2022-08-30T12:43:03;27.60;51.40
29855;DHT22;16733;48.738;9.106;2022-08-30T12:48:51;27.60;50.80
29855;DHT22;16733;48.738;9.106;2022-08-30T12:51:37;27.60;50.90
29855;DHT22;16733;48.738;9.106;2022-08-30T12:54:18;27.50;50.30
29855;DHT22;16733;48.738;9.106;2022-08-30T12:57:05;27.40;50.40
29855;DHT22;16733;48.738;9.106;2022-08-30T12:59:53;27.30;50.30
29855;DHT22;16733;48.738;9.106;2022-08-30T13:05:43;27.30;49.80
29855;DHT22;16733;48.738;9.106;2022-08-30T13:14:20;27.60;49.70
29855;DHT22;16733;48.738;9.106;2022-08-30T13:22:38;27.80;49.20
29855;DHT22;16733;48.738;9.106;2022-08-30T13:25:06;28.00;49.00
29855;DHT22;16733;48.738;9.106;2022-08-30T13:30:54;28.40;48.30
29855;DHT22;16733;48.738;9.106;2022-08-30T13:36:45;28.30;48.10
29855;DHT22;16733;48.738;9.106;2022-08-30T13:39:12;28.10;48.40
29855;DHT22;16733;48.738;9.106;2022-08-30T13:44:59;27.90;48.30
29855;DHT22;16733;48.738;9.106;2022-08-30T13:47:25;28.00;48.50
29855;DHT22;16733;48.738;9.106;2022-08-30T13:49:51;28.00;48.30
29855;DHT22;16733;48.738;9.106;2022-08-30T13:55:40;28.00;47.70
29855;DHT22;16733;48.738;9.106;2022-08-30T13:58:07;28.00;48.00
29855;DHT22;16733;48.738;9.106;2022-08-30T14:03:54;28.20;47.20
29855;DHT22;16733;48.738;9.106;2022-08-30T14:06:20;28.20;47.60
29855;DHT22;16733;48.738;9.106;2022-08-30T14:08:46;28.30;47.60
29855;DHT22;16733;48.738;9.106;2022-08-30T14:21:24;28.70;46.70
29855;DHT22;16733;48.738;9.106;2022-08-30T14:27:12;28.40;47.00
29855;DHT22;16733;48.738;9.106;2022-08-30T14:33:00;28.10;46.30
29855;DHT22;16733;48.738;9.106;2022-08-30T14:35:25;28.00;46.80
29855;DHT22;16733;48.738;9.106;2022-08-30T14:37:51;28.00;46.70
29855;DHT22;16733;48.738;9.106;2022-08-30T14:43:38;27.80;46.40
29855;DHT22;16733;48.738;9.106;2022-08-30T14:46:04;27.80;46.70
29855;DHT22;16733;48.738;9.106;2022-08-30T14:51:52;27.60;46.40
29855;DHT22;16733;48.738;9.106;2022-08-30T14:54:22;27.50;46.90
29855;DHT22;16733;48.738;9.106;2022-08-30T15:06:55;27.70;46.80
29855;DHT22;16733;48.738;9.106;2022-08-30T15:09:22;28.00;46.70
29855;DHT22;16733;48.738;9.106;2022-08-30T15:11:48;28.10;46.40
29855;DHT22;16733;48.738;9.106;2022-08-30T15:17:36;27.90;46.20
29855;DHT22;16733;48.738;9.106;2022-08-30T15:23:23;27.60;46.50
29855;DHT22;16733;48.738;9.106;2022-08-30T15:29:14;27.30;46.90
29855;DHT22;16733;48.738;9.106;2022-08-30T15:31:41;27.20;47.10
29855;DHT22;16733;48.738;9.106;2022-08-30T15:34:21;27.20;47.00
29855;DHT22;16733;48.738;9.106;2022-08-30T15:36:47;27.00;47.00
29855;DHT22;16733;48.738;9.106;2022-08-30T15:39:14;27.00;47.30
29855;DHT22;16733;48.738;9.106;2022-08-30T15:41:41;27.00;47.40
29855;DHT22;16733;48.738;9.106;2022-08-30T15:44:07;26.90;47.40
29855;DHT22;16733;48.738;9.106;2022-08-30T15:46:34;26.80;47.40
29855;DHT22;16733;48.738;9.106;2022-08-30T15:49:06;26.80;47.50
29855;DHT22;16733;48.738;9.106;2022-08-30T15:51:33;26.80;47.50
29855;DHT22;16733;48.738;9.106;2022-08-30T16:00:44;26.60;47.70
29855;DHT22;16733;48.738;9.106;2022-08-30T16:03:10;26.70;47.80
29855;DHT22;16733;48.738;9.106;2022-08-30T16:08:58;26.60;47.80
29855;DHT22;16733;48.738;9.106;2022-08-30T16:11:23;26.60;47.90
29855;DHT22;16733;48.738;9.106;2022-08-30T16:17:11;26.60;48.00
29855;DHT22;16733;48.738;9.106;2022-08-30T16:19:37;26.60;48.10
29855;DHT22;16733;48.738;9.106;2022-08-30T16:25:25;26.60;47.90
29855;DHT22;16733;48.738;9.106;2022-08-30T16:27:50;26.70;48.10
29855;DHT22;16733;48.738;9.106;2022-08-30T16:30:17;26.70;48.10
29855;DHT22;16733;48.738;9.106;2022-08-30T16:36:05;26.50;48.10
29855;DHT22;16733;48.738;9.106;2022-08-30T16:38:32;26.50;48.30
29855;DHT22;16733;48.738;9.106;2022-08-30T16:47:42;26.20;48.50
29855;DHT22;16733;48.738;9.106;2022-08-30T16:56:53;25.90;48.80
29855;DHT22;16733;48.738;9.106;2022-08-30T16:59:20;25.90;49.10
29855;DHT22;16733;48.738;9.106;2022-08-30T17:05:07;25.80;49.20
29855;DHT22;16733;48.738;9.106;2022-08-30T17:07:33;25.70;49.20
29855;DHT22;16733;48.738;9.106;2022-08-30T17:09:59;25.70;49.30
29855;DHT22;16733;48.738;9.106;2022-08-30T17:15:47;25.70;49.50
29855;DHT22;16733;48.738;9.106;2022-08-30T17:18:15;25.60;49.50
29855;DHT22;16733;48.738;9.106;2022-08-30T17:24:03;25.50;49.80
29855;DHT22;16733;48.738;9.106;2022-08-30T17:26:30;25.50;49.90
29855;DHT22;16733;48.738;9.106;2022-08-30T17:35:41;25.40;50.00
29855;DHT22;16733;48.738;9.106;2022-08-30T17:41:28;25.30;50.10
29855;DHT22;16733;48.738;9.106;2022-08-30T17:43:54;25.20;50.10
29855;DHT22;16733;48.738;9.106;2022-08-30T17:53:04;25.00;50.40
29855;DHT22;16733;48.738;9.106;2022-08-30T17:55:29;25.00;50.50
29855;DHT22;16733;48.738;9.106;2022-08-30T18:01:20;24.90;50.60
29855;DHT22;16733;48.738;9.106;2022-08-30T18:03:46;24.90;50.70
29855;DHT22;16733;48.738;9.106;2022-08-30T18:06:27;24.80;50.80
29855;DHT22;16733;48.738;9.106;2022-08-30T18:08:52;24.70;50.90
29855;DHT22;16733;48.738;9.106;2022-08-30T18:11:18;24.70;51.00
29855;DHT22;16733;48.738;9.106;2022-08-30T18:13:43;24.70;51.10
29855;DHT22;16733;48.738;9.106;2022-08-30T18:16:09;24.60;51.10
29855;DHT22;16733;48.738;9.106;2022-08-30T18:18:35;24.50;51.10
29855;DHT22;16733;48.738;9.106;2022-08-30T18:21:01;24.50;51.20
29855;DHT22;16733;48.738;9.106;2022-08-30T18:26:52;24.50;51.20
29855;DHT22;16733;48.738;9.106;2022-08-30T18:32:41;24.30;51.20
29855;DHT22;16733;48.738;9.106;2022-08-30T18:35:07;24.30;51.20
29855;DHT22;16733;48.738;9.106;2022-08-30T18:41:00;24.30;51.30
29855;DHT22;16733;48.738;9.106;2022-08-30T18:43:26;24.20;51.30
29855;DHT22;16733;48.738;9.106;2022-08-30T18:45:52;24.20;51.30
29855;DHT22;16733;48.738;9.106;2022-08-30T18:48:17;24.20;51.40
29855;DHT22;16733;48.738;9.106;2022-08-30T18:50:44;24.10;51.40
29855;DHT22;16733;48.738;9.106;2022-08-30T18:53:11;24.10;51.40
29855;DHT22;16733;48.738;9.106;2022-08-30T18:55:37;24.10;51.40
29855;DHT22;16733;48.738;9.106;2022-08-30T18:58:04;24.10;51.40
29855;DHT22;16733;48.738;9.106;2022-08-30T19:03:51;24.00;51.30
29855;DHT22;16733;48.738;9.106;2022-08-30T19:06:17;23.90;51.30
29855;DHT22;16733;48.738;9.106;2022-08-30T19:12:05;23.90;51.20
29855;DHT22;16733;48.738;9.106;2022-08-30T19:14:31;23.90;51.20
29855;DHT22;16733;48.738;9.106;2022-08-30T19:16:57;23.80;51.10
29855;DHT22;16733;48.738;9.106;2022-08-30T19:22:46;23.70;51.00
29855;DHT22;16733;48.738;9.106;2022-08-30T19:25:14;23.70;51.10
29855;DHT22;16733;48.738;9.106;2022-08-30T19:31:02;23.60;50.90
29855;DHT22;16733;48.738;9.106;2022-08-30T19:33:31;23.60;51.00
29855;DHT22;16733;48.738;9.106;2022-08-30T19:35:57;23.60;51.00
29855;DHT22;16733;48.738;9.106;2022-08-30T19:38:23;23.50;51.00
29855;DHT22;16733;48.738;9.106;2022-08-30T19:40:49;23.50;50.90
29855;DHT22;16733;48.738;9.106;2022-08-30T19:49:59;23.50;51.00
29855;DHT22;16733;48.738;9.106;2022-08-30T19:52:26;23.40;51.50
29855;DHT22;16733;48.738;9.106;2022-08-30T19:55:01;23.50;51.00
29855;DHT22;16733;48.738;9.106;2022-08-30T19:57:41;23.50;51.00
29855;DHT22;16733;48.738;9.106;2022-08-30T20:03:29;23.50;50.90
29855;DHT22;16733;48.738;9.106;2022-08-30T20:05:55;23.40;50.80
29855;DHT22;16733;48.738;9.106;2022-08-30T20:08:20;23.50;50.90
29855;DHT22;16733;48.738;9.106;2022-08-30T20:17:30;23.40;50.90
29855;DHT22;16733;48.738;9.106;2022-08-30T20:19:56;23.40;51.00
29855;DHT22;16733;48.738;9.106;2022-08-30T20:22:24;23.30;50.90
29855;DHT22;16733;48.738;9.106;2022-08-30T20:28:13;23.30;51.00
29855;DHT22;16733;48.738;9.106;2022-08-30T20:30:41;23.30;51.00
29855;DHT22;16733;48.738;9.106;2022-08-30T20:33:08;23.30;51.10
29855;DHT22;16733;48.738;9.106;2022-08-30T20:35:34;23.20;51.10
29855;DHT22;16733;48.738;9.106;2022-08-30T20:37:59;23.20;51.10
29855;DHT22;16733;48.738;9.106;2022-08-30T20:40:31;23.20;51.20
29855;DHT22;16733;48.738;9.106;2022-08-30T20:42:59;23.20;51.30
29855;DHT22;16733;48.738;9.106;2022-08-30T20:45:25;23.10;51.30
29855;DHT22;16733;48.738;9.106;2022-08-30T20:47:51;23.10;51.30
29855;DHT22;16733;48.738;9.106;2022-08-30T20:50:16;23.00;51.20
29855;DHT22;16733;48.738;9.106;2022-08-30T20:52:43;23.00;51.20
29855;DHT22;16733;48.738;9.106;2022-08-30T20:55:11;22.90;51.10
29855;DHT22;16733;48.738;9.106;2022-08-30T20:57:37;22.90;51.00
29855;DHT22;16733;48.738;9.106;2022-08-30T21:03:24;22.90;50.90
29855;DHT22;16733;48.738;9.106;2022-08-30T21:05:50;22.90;50.90
29855;DHT22;16733;48.738;9.106;2022-08-30T21:08:16;22.80;50.90
29855;DHT22;16733;48.738;9.106;2022-08-30T21:14:04;22.80;50.70
29855;DHT22;16733;48.738;9.106;2022-08-30T21:16:32;22.80;50.80
29855;DHT22;16733;48.738;9.106;2022-08-30T21:18:58;22.80;50.70
29855;DHT22;16733;48.738;9.106;2022-08-30T21:21:25;22.70;50.70
29855;DHT22;16733;48.738;9.106;2022-08-30T21:23:56;22.70;50.50
29855;DHT22;16733;48.738;9.106;2022-08-30T21:26:22;22.80;51.10
29855;DHT22;16733;48.738;9.106;2022-08-30T21:28:50;22.70;50.40
29855;DHT22;16733;48.738;9.106;2022-08-30T21:37:59;22.80;50.30
29855;DHT22;16733;48.738;9.106;2022-08-30T21:40:25;22.70;50.30
29855;DHT22;16733;48.738;9.106;2022-08-30T21:42:51;22.80;50.20
29855;DHT22;16733;48.738;9.106;2022-08-30T21:45:17;22.70;50.10
29855;DHT22;16733;48.738;9.106;2022-08-30T21:47:43;22.70;50.10
29855;DHT22;16733;48.738;9.106;2022-08-30T21:50:09;22.70;50.10
29855;DHT22;16733;48.738;9.106;2022-08-30T21:52:35;22.70;50.20
29855;DHT22;16733;48.738;9.106;2022-08-30T21:55:01;22.70;50.20
29855;DHT22;16733;48.738;9.106;2022-08-30T21:57:27;22.60;50.20
29855;DHT22;16733;48.738;9.106;2022-08-30T21:59:53;22.60;50.20
29855;DHT22;16733;48.738;9.106;2022-08-30T22:02:19;22.60;50.20
29855;DHT22;16733;48.738;9.106;2022-08-30T22:04:45;22.50;50.20
29855;DHT22;16733;48.738;9.106;2022-08-30T22:07:11;22.50;50.20
29855;DHT22;16733;48.738;9.106;2022-08-30T22:09:36;22.50;50.20
29855;DHT22;16733;48.738;9.106;2022-08-30T22:12:03;22.50;50.80
29855;DHT22;16733;48.738;9.106;2022-08-30T22:14:30;22.50;50.20
29855;DHT22;16733;48.738;9.106;2022-08-30T22:16:56;22.40;50.20
29855;DHT22;16733;48.738;9.106;2022-08-30T22:22:44;22.40;50.30
29855;DHT22;16733;48.738;9.106;2022-08-30T22:25:09;22.40;50.40
29855;DHT22;16733;48.738;9.106;2022-08-30T22:31:05;22.40;50.50
29855;DHT22;16733;48.738;9.106;2022-08-30T22:33:35;22.40;50.40
29855;DHT22;16733;48.738;9.106;2022-08-30T22:39:22;22.40;50.20
29855;DHT22;16733;48.738;9.106;2022-08-30T22:41:48;22.40;50.20
29855;DHT22;16733;48.738;9.106;2022-08-30T22:47:37;22.50;49.90
29855;DHT22;16733;48.738;9.106;2022-08-30T22:50:02;22.50;50.00
29855;DHT22;16733;48.738;9.106;2022-08-30T22:55:50;22.50;49.70
29855;DHT22;16733;48.738;9.106;2022-08-30T22:58:16;22.50;49.90
29855;DHT22;16733;48.738;9.106;2022-08-30T23:00:43;22.40;49.80
29855;DHT22;16733;48.738;9.106;2022-08-30T23:03:09;22.40;49.80
29855;DHT22;16733;48.738;9.106;2022-08-30T23:05:35;22.40;49.80
29855;DHT22;16733;48.738;9.106;2022-08-30T23:08:02;22.40;49.80
29855;DHT22;16733;48.738;9.106;2022-08-30T23:10:28;22.40;49.80
29855;DHT22;16733;48.738;9.106;2022-08-30T23:19:39;22.20;50.00
29855;DHT22;16733;48.738;9.106;2022-08-30T23:25:30;22.00;50.20
29855;DHT22;16733;48.738;9.106;2022-08-30T23:31:37;21.90;50.50
29855;DHT22;16733;48.738;9.106;2022-08-30T23:34:21;21.80;50.60
29855;DHT22;16733;48.738;9.106;2022-08-30T23:37:05;21.70;50.70
29855;DHT22;16733;48.738;9.106;2022-08-30T23:39:49;21.70;50.80
29855;DHT22;16733;48.738;9.106;2022-08-30T23:45:55;21.70;50.90
29855;DHT22;16733;48.738;9.106;2022-08-30T23:48:39;21.60;50.80
29855;DHT22;16733;48.738;9.106;2022-08-30T23:51:23;21.60;50.90
29855;DHT22;16733;48.738;9.106;2022-08-30T23:54:08;21.60;51.00
29855;DHT22;16733;48.738;9.106;2022-08-30T23:56:52;21.60;51.10
29855;DHT22;16733;48.738;9.106;2022-08-30T23:59:36;21.50;51.10
